Aeroporto :
LOGIN :

Iscrizione | Disclaimer

   EN    FR    IT 

 










Sommario :    VFR   VFR Marginale   IFR   IFR Intensivo   IFR Molto Intensivo
Visibilità : 
Base nubi : 
>= 8 km
>= 3000ft
5 / 8 km
1000 / 3000 ft
1500m / 5 km
500 / 1000 ft
800 / 1500m
200 / 500 ft
< 800m
< 200 ft
Simboli :   Temporali  Nebbia  Neve Forte  Precipitazioni Forti  Vento > 20 kt
SIGMETs :   Varie  Temporali  Ghiacco  Turbolenza  Onda orograficha  Ceneri Vulcaniche






- Altitudine del aeroporto : 102 ft
- Codice IATA : CNG


LFBG - Cognac

ULTIMO METAR :
  • 170000Z AUTO 00000KT 0800 0750 R23/1000U FG VV/// 00/00 Q1009

METARs OBSOLETI :
  • 162330Z AUTO 09002KT 0350 0300 R23/0325N FG VV/// 01/01 Q1009
  • 162300Z AUTO 00000KT 0650 0450 R23/0700N FG VV/// 01/01 Q1009
  • 162230Z AUTO 22002KT 0300 0250 R23/0275N FG VV/// 01/01 Q1009
  • 162200Z AUTO 00000KT 0750 0400 R23/0450D FG VV/// 03/02 Q1009
  • 162130Z AUTO 28003KT 3600 0450 R23/0550U BCFG NSC 03/03 Q1009

Previsioni scadute.



MetMap, La meteo Aeronautica in un colpo d'occhio ! - Copyright ORBIFLY Dicembre 2007 - Disclaimer

ORBIFLY MET'MAP TEAM :

Programmazione e sviluppo : Alexandra Zaïnal
Concezione e sviluppo : Baudouin d'Aumeries
Co-Programmazione e sviluppo : Marc-Olivier Méhu
Supporto tecnico e logistico : Manuel Goepfert
Aiuto per la traduzione : Arnaldo La Scala

Contatto : metmap@orbifly.com




FONTI E CREDITI :

   NOAA